createdAt,value
2023-04-07T00:00:12.692Z,513.00
2023-04-07T00:04:12.770Z,512.00
2023-04-07T00:08:12.682Z,513.00
2023-04-07T00:12:12.918Z,512.00
2023-04-07T00:16:12.988Z,515.00
2023-04-07T00:20:12.672Z,512.00
2023-04-07T00:24:14.450Z,511.00
2023-04-07T00:28:12.963Z,513.00
2023-04-07T00:32:12.934Z,512.00
2023-04-07T00:36:12.979Z,512.00
2023-04-07T00:40:12.962Z,511.00
2023-04-07T00:44:12.438Z,513.00
2023-04-07T00:48:12.466Z,514.00
2023-04-07T00:52:12.461Z,511.00
2023-04-07T00:56:12.460Z,511.00
2023-04-07T01:00:12.341Z,512.00
2023-04-07T01:04:12.324Z,512.00
2023-04-07T01:08:12.439Z,511.00
2023-04-07T01:12:12.455Z,511.00
2023-04-07T01:16:12.478Z,510.00
2023-04-07T01:20:12.103Z,509.00
2023-04-07T01:24:12.477Z,511.00
2023-04-07T01:28:12.459Z,512.00
2023-04-07T01:32:12.094Z,511.00
2023-04-07T01:36:11.997Z,510.00
2023-04-07T01:40:11.933Z,510.00
2023-04-07T01:44:11.960Z,511.00
2023-04-07T01:48:12.028Z,511.00
2023-04-07T01:52:11.984Z,509.00
2023-04-07T01:56:11.956Z,510.00
2023-04-07T02:00:11.763Z,509.00
2023-04-07T02:04:11.781Z,506.00
2023-04-07T02:08:11.666Z,510.00
2023-04-07T02:12:12.006Z,508.00
2023-04-07T02:16:12.021Z,511.00
2023-04-07T02:20:11.547Z,508.00
2023-04-07T02:24:12.052Z,509.00
2023-04-07T02:28:11.494Z,506.00
2023-04-07T02:32:11.481Z,507.00
2023-04-07T02:36:11.519Z,509.00
2023-04-07T02:40:11.413Z,511.00
2023-04-07T02:44:11.517Z,509.00
2023-04-07T02:48:11.494Z,505.00
2023-04-07T02:52:11.587Z,511.00
2023-04-07T02:56:12.001Z,509.00
2023-04-07T03:00:11.576Z,508.00
2023-04-07T03:04:12.068Z,508.00
2023-04-07T03:08:12.939Z,509.00
2023-04-07T03:12:12.012Z,508.00
2023-04-07T03:16:11.734Z,508.00
2023-04-07T03:20:11.764Z,508.00
2023-04-07T03:24:12.038Z,506.00
2023-04-07T03:28:11.838Z,507.00
2023-04-07T03:32:12.042Z,507.00
2023-04-07T03:36:11.911Z,506.00
2023-04-07T03:40:12.045Z,507.00
2023-04-07T03:44:12.033Z,506.00
2023-04-07T03:48:12.116Z,509.00
2023-04-07T03:52:12.528Z,506.00
2023-04-07T03:56:12.151Z,506.00
2023-04-07T04:00:12.506Z,506.00
2023-04-07T04:04:12.509Z,508.00
2023-04-07T04:08:12.294Z,506.00
2023-04-07T04:12:12.535Z,507.00
2023-04-07T04:16:14.993Z,505.00
2023-04-07T04:20:12.539Z,504.00
2023-04-07T04:24:12.524Z,506.00
2023-04-07T04:28:12.260Z,505.00
2023-04-07T04:32:12.536Z,504.00
2023-04-07T04:36:12.240Z,505.00
2023-04-07T04:40:12.538Z,504.00
2023-04-07T04:44:12.545Z,504.00
2023-04-07T04:48:12.113Z,507.00
2023-04-07T04:52:12.057Z,504.00
2023-04-07T04:56:11.970Z,503.00
2023-04-07T05:00:12.090Z,503.00
2023-04-07T05:04:12.187Z,503.00
2023-04-07T05:08:12.108Z,502.00
2023-04-07T05:12:11.835Z,504.00
2023-04-07T05:16:12.101Z,503.00
2023-04-07T05:20:11.776Z,502.00
2023-04-07T05:24:12.068Z,501.00
2023-04-07T05:28:12.097Z,501.00
2023-04-07T05:32:11.650Z,505.00
2023-04-07T05:36:12.131Z,504.00
2023-04-07T05:40:12.126Z,502.00
2023-04-07T05:44:11.542Z,502.00
2023-04-07T05:48:11.596Z,501.00
2023-04-07T05:52:11.492Z,503.00
2023-04-07T05:56:11.588Z,500.00
2023-04-07T06:00:12.098Z,503.00
2023-04-07T06:04:11.705Z,502.00
2023-04-07T06:08:12.094Z,503.00
2023-04-07T06:12:11.829Z,502.00
2023-04-07T06:16:12.141Z,505.00
2023-04-07T06:20:12.138Z,501.00
2023-04-07T06:24:11.986Z,503.00
2023-04-07T06:28:12.136Z,503.00
2023-04-07T06:32:12.115Z,504.00
2023-04-07T06:36:12.598Z,502.00
2023-04-07T06:40:12.593Z,502.00
2023-04-07T06:44:12.279Z,505.00
2023-04-07T06:48:12.610Z,504.00
2023-04-07T06:52:12.375Z,503.00
2023-04-07T06:56:12.617Z,503.00
2023-04-07T07:00:12.599Z,504.00
2023-04-07T07:04:12.772Z,503.00
2023-04-07T07:08:12.596Z,505.00
2023-04-07T07:12:12.601Z,504.00
2023-04-07T07:16:13.228Z,506.00
2023-04-07T07:20:13.113Z,508.00
2023-04-07T07:24:12.701Z,505.00
2023-04-07T07:28:12.732Z,507.00
2023-04-07T07:32:12.772Z,502.00
2023-04-07T07:36:13.130Z,505.00
2023-04-07T07:40:13.128Z,507.00
2023-04-07T07:44:13.110Z,502.00
2023-04-07T07:48:12.818Z,507.00
2023-04-07T07:52:13.153Z,509.00
2023-04-07T07:56:13.141Z,509.00
2023-04-07T08:00:12.831Z,508.00
2023-04-07T08:04:13.331Z,510.00
2023-04-07T08:08:12.790Z,508.00
2023-04-07T08:12:13.156Z,510.00
2023-04-07T08:16:13.174Z,510.00
2023-04-07T08:20:13.126Z,506.00
2023-04-07T08:24:12.695Z,509.00
2023-04-07T08:28:12.741Z,512.00
2023-04-07T08:32:12.740Z,509.00
2023-04-07T08:36:13.175Z,511.00
2023-04-07T08:40:13.123Z,512.00
2023-04-07T08:44:13.139Z,512.00
2023-04-07T08:48:13.217Z,513.00
2023-04-07T08:52:13.666Z,509.00
2023-04-07T08:56:13.174Z,509.00
2023-04-07T09:00:13.208Z,506.00
2023-04-07T09:04:13.116Z,509.00
2023-04-07T09:08:13.025Z,505.00
2023-04-07T09:12:13.151Z,508.00
2023-04-07T09:16:13.246Z,509.00
2023-04-07T09:20:13.160Z,512.00
2023-04-07T09:24:13.138Z,505.00
2023-04-07T09:28:13.039Z,508.00
2023-04-07T09:32:13.675Z,509.00
2023-04-07T09:36:13.721Z,500.00
2023-04-07T09:40:13.676Z,503.00
2023-04-07T09:44:13.571Z,504.00
2023-04-07T09:48:13.621Z,506.00
2023-04-07T09:52:14.174Z,504.00
2023-04-07T09:56:14.171Z,512.00
2023-04-07T10:00:14.160Z,509.00
2023-04-07T10:04:14.016Z,510.00
2023-04-07T10:08:14.184Z,507.00
2023-04-07T10:12:14.209Z,508.00
2023-04-07T10:16:14.178Z,513.00
2023-04-07T10:20:14.185Z,512.00
2023-04-07T10:24:14.257Z,510.00
2023-04-07T10:28:14.214Z,507.00
2023-04-07T10:32:14.685Z,510.00
2023-04-07T10:36:14.670Z,508.00
2023-04-07T10:40:14.667Z,512.00
2023-04-07T10:44:14.227Z,511.00
2023-04-07T10:48:14.184Z,514.00
2023-04-07T10:52:14.221Z,514.00
2023-04-07T10:56:14.227Z,509.00
2023-04-07T11:00:14.200Z,509.00
2023-04-07T11:04:14.271Z,510.00
2023-04-07T11:08:14.105Z,511.00
2023-04-07T11:12:14.218Z,508.00
2023-04-07T11:16:14.277Z,502.00
2023-04-07T11:20:14.232Z,510.00
2023-04-07T11:24:14.161Z,510.00
2023-04-07T11:28:14.216Z,517.00
2023-04-07T11:32:14.230Z,515.00
2023-04-07T11:36:14.246Z,515.00
2023-04-07T11:40:14.164Z,516.00
2023-04-07T11:44:14.178Z,511.00
2023-04-07T11:48:14.228Z,512.00
2023-04-07T11:52:14.184Z,509.00
2023-04-07T11:56:14.725Z,517.00
2023-04-07T12:00:14.298Z,517.00
2023-04-07T12:04:14.442Z,513.00
2023-04-07T12:08:14.751Z,517.00
2023-04-07T12:12:14.728Z,518.00
2023-04-07T12:16:14.758Z,514.00
2023-04-07T12:20:14.444Z,513.00
2023-04-07T12:24:14.758Z,514.00
2023-04-07T12:28:14.745Z,511.00
2023-04-07T12:32:14.720Z,518.00
2023-04-07T12:36:14.750Z,514.00
2023-04-07T12:40:14.800Z,512.00
2023-04-07T12:44:14.897Z,511.00
2023-04-07T12:48:15.255Z,510.00
2023-04-07T12:52:15.058Z,512.00
2023-04-07T12:56:15.273Z,508.00
2023-04-07T13:00:15.204Z,510.00
2023-04-07T13:04:22.920Z,513.00
2023-04-07T13:08:15.791Z,516.00
2023-04-07T13:12:15.279Z,514.00
2023-04-07T13:16:15.388Z,512.00
2023-04-07T13:20:19.511Z,510.00
2023-04-07T13:24:16.303Z,511.00
2023-04-07T13:28:15.275Z,505.00
2023-04-07T13:32:15.286Z,510.00
2023-04-07T13:36:15.105Z,507.00
2023-04-07T13:40:15.206Z,514.00
2023-04-07T13:44:15.803Z,509.00
2023-04-07T13:48:15.805Z,512.00
2023-04-07T13:52:15.792Z,508.00
2023-04-07T13:56:15.822Z,508.00
2023-04-07T14:00:15.927Z,510.00
2023-04-07T14:04:16.418Z,508.00
2023-04-07T14:08:16.322Z,510.00
2023-04-07T14:12:16.371Z,512.00
2023-04-07T14:16:16.613Z,507.00
2023-04-07T14:20:16.679Z,514.00
2023-04-07T14:24:17.307Z,504.00
2023-04-07T14:28:17.342Z,509.00
2023-04-07T14:32:17.206Z,506.00
2023-04-07T14:36:17.452Z,508.00
2023-04-07T14:40:17.513Z,510.00
2023-04-07T14:44:17.836Z,512.00
2023-04-07T14:48:18.337Z,508.00
2023-04-07T14:52:18.334Z,507.00
2023-04-07T14:56:18.283Z,511.00
2023-04-07T15:00:18.835Z,502.00
2023-04-07T15:04:18.737Z,503.00
2023-04-07T15:08:19.361Z,508.00
2023-04-07T15:12:19.080Z,506.00
2023-04-07T15:16:19.346Z,510.00
2023-04-07T15:20:19.501Z,506.00
2023-04-07T15:24:19.827Z,512.00
2023-04-07T15:28:20.352Z,511.00
2023-04-07T15:32:20.807Z,509.00
2023-04-07T15:36:20.377Z,512.00
2023-04-07T15:40:20.847Z,515.00
2023-04-07T15:44:20.835Z,515.00
2023-04-07T15:48:21.329Z,515.00
2023-04-07T15:52:21.342Z,514.00
2023-04-07T15:56:21.152Z,513.00
2023-04-07T16:00:21.358Z,510.00
2023-04-07T16:04:21.187Z,512.00
2023-04-07T16:08:21.356Z,508.00
2023-04-07T16:12:21.354Z,516.00
2023-04-07T16:16:21.018Z,516.00
2023-04-07T16:20:21.522Z,515.00
2023-04-07T16:24:20.906Z,511.00
2023-04-07T16:28:21.346Z,512.00
2023-04-07T16:32:20.859Z,515.00
2023-04-07T16:36:20.833Z,512.00
2023-04-07T16:40:20.867Z,508.00
2023-04-07T16:44:20.717Z,516.00
2023-04-07T16:48:20.849Z,512.00
2023-04-07T16:52:20.852Z,506.00
2023-04-07T16:56:20.876Z,518.00
2023-04-07T17:00:20.571Z,514.00
2023-04-07T17:04:20.691Z,511.00
2023-04-07T17:08:20.879Z,514.00
2023-04-07T17:12:20.708Z,515.00
2023-04-07T17:16:20.760Z,514.00
2023-04-07T17:20:20.888Z,511.00
2023-04-07T17:24:20.904Z,513.00
2023-04-07T17:28:20.580Z,509.00
2023-04-07T17:32:20.519Z,509.00
2023-04-07T17:36:20.490Z,509.00
2023-04-07T17:40:20.892Z,506.00
2023-04-07T17:44:20.891Z,510.00
2023-04-07T17:48:20.415Z,503.00
2023-04-07T17:52:20.500Z,508.00
2023-04-07T17:56:20.923Z,513.00
2023-04-07T18:00:20.908Z,510.00
2023-04-07T18:04:21.150Z,510.00
2023-04-07T18:08:21.410Z,507.00
2023-04-07T18:12:21.284Z,509.00
2023-04-07T18:16:22.533Z,511.00
2023-04-07T18:20:21.912Z,513.00
2023-04-07T18:24:21.698Z,510.00
2023-04-07T18:28:21.950Z,510.00
2023-04-07T18:32:21.842Z,512.00
2023-04-07T18:36:21.981Z,511.00
2023-04-07T18:40:22.417Z,511.00
2023-04-07T18:44:22.429Z,508.00
2023-04-07T18:48:22.181Z,503.00
2023-04-07T18:52:22.316Z,510.00
2023-04-07T18:56:22.398Z,509.00
2023-04-07T19:00:22.918Z,511.00
2023-04-07T19:04:22.534Z,509.00
2023-04-07T19:08:22.614Z,512.00
2023-04-07T19:12:22.702Z,513.00
2023-04-07T19:16:22.966Z,510.00
2023-04-07T19:20:22.930Z,511.00
2023-04-07T19:24:22.816Z,516.00
2023-04-07T19:28:22.829Z,509.00
2023-04-07T19:32:22.894Z,511.00
2023-04-07T19:36:22.932Z,516.00
2023-04-07T19:40:23.455Z,515.00
2023-04-07T19:44:23.941Z,514.00
2023-04-07T19:48:22.963Z,506.00
2023-04-07T19:52:22.966Z,515.00
2023-04-07T19:56:23.446Z,515.00
2023-04-07T20:00:22.962Z,514.00
2023-04-07T20:04:22.944Z,512.00
2023-04-07T20:08:22.919Z,513.00
2023-04-07T20:12:22.882Z,511.00
2023-04-07T20:16:23.014Z,513.00
2023-04-07T20:20:22.958Z,512.00
2023-04-07T20:24:22.944Z,513.00
2023-04-07T20:28:22.810Z,516.00
2023-04-07T20:32:22.865Z,514.00
2023-04-07T20:36:22.975Z,511.00
2023-04-07T20:40:23.004Z,513.00
2023-04-07T20:44:22.987Z,512.00
2023-04-07T20:48:22.792Z,511.00
2023-04-07T20:52:22.980Z,514.00
2023-04-07T20:56:22.974Z,511.00
2023-04-07T21:00:22.741Z,513.00
2023-04-07T21:04:22.884Z,512.00
2023-04-07T21:08:22.956Z,512.00
2023-04-07T21:12:23.044Z,511.00
2023-04-07T21:16:23.012Z,513.00
2023-04-07T21:20:22.967Z,513.00
2023-04-07T21:24:22.782Z,514.00
2023-04-07T21:28:23.002Z,513.00
2023-04-07T21:32:23.031Z,512.00
2023-04-07T21:36:22.986Z,514.00
2023-04-07T21:40:22.977Z,516.00
2023-04-07T21:44:22.939Z,516.00
2023-04-07T21:48:22.995Z,515.00
2023-04-07T21:52:22.987Z,517.00
2023-04-07T21:56:22.966Z,515.00
2023-04-07T22:00:23.518Z,515.00
2023-04-07T22:04:23.102Z,516.00
2023-04-07T22:08:23.063Z,518.00
2023-04-07T22:12:23.492Z,517.00
2023-04-07T22:16:23.512Z,516.00
2023-04-07T22:20:23.495Z,515.00
2023-04-07T22:24:23.177Z,515.00
2023-04-07T22:28:23.233Z,516.00
2023-04-07T22:32:23.508Z,515.00
2023-04-07T22:36:23.519Z,515.00
2023-04-07T22:40:23.378Z,516.00
2023-04-07T22:44:23.537Z,516.00
2023-04-07T22:48:23.497Z,518.00
2023-04-07T22:52:24.025Z,516.00
2023-04-07T22:56:24.026Z,514.00
2023-04-07T23:00:23.698Z,517.00
2023-04-07T23:04:23.759Z,514.00
2023-04-07T23:08:23.822Z,514.00
2023-04-07T23:12:24.000Z,518.00
2023-04-07T23:16:24.049Z,516.00
2023-04-07T23:20:23.997Z,519.00
2023-04-07T23:24:24.523Z,517.00
2023-04-07T23:28:24.180Z,516.00
2023-04-07T23:32:24.557Z,519.00
2023-04-07T23:36:24.538Z,514.00
2023-04-07T23:40:24.387Z,516.00
2023-04-07T23:44:24.564Z,517.00
2023-04-07T23:48:24.531Z,516.00
2023-04-07T23:52:25.064Z,515.00
2023-04-07T23:56:25.036Z,515.00
